^^
Grace C. Lehan Memorial Weather Station Historical Data
Daily Summary for July 30, 2021 Units:  English    Metric   Both
Daily Weekly Monthly Yearly
  High: Low: Average:
Temperature: 99.3 °F 72.9 °F 86 °F
Dew Point: 78.2 °F 71.1 °F 74.5 °F
Humidity: 95% 43.5% 72%
Wind Speed: 3.9mph 0mph 0.9mph
Wind Gust: 14mph - -
Wind- - WSW
Pressure: 30.04 in 29.77 in -
Precipitation: 0.00 in    
 
 
Tabular Data for July 30, 2021
Time Temperature Dew Point Pressure Wind Wind Speed Wind Gust Humidity Rainfall Rate (Hourly) solar
00:09 76.2 °F 74.3 °F 30.04 in Calm     94% 0.00 in 0 W/m2
00:14 76.2 °F 74.3 °F 30.03 in Calm     94% 0.00 in 0 W/m2
00:19 76.1 °F 74.3 °F 30.03 in Calm     94% 0.00 in 0 W/m2
00:24 76.1 °F 74.3 °F 30.03 in Calm     94% 0.00 in 0 W/m2
00:29 76.1 °F 74.3 °F 30.04 in Calm     94% 0.00 in 0 W/m2
00:34 76.1 °F 74.3 °F 30.04 in Calm     94% 0.00 in 0 W/m2
00:39 76.1 °F 74.2 °F 30.04 in Calm     94% 0.00 in 0 W/m2
00:44 76 °F 74.2 °F 30.04 in Calm     94% 0.00 in 0 W/m2
00:49 76 °F 74.2 °F 30.04 in Calm     94% 0.00 in 0 W/m2
00:54 76 °F 74.2 °F 30.04 in Calm     94% 0.00 in 0 W/m2
00:56 76 °F 74.2 °F 30.04 in Calm     94% 0.00 in 0 W/m2
01:00 76 °F 74.2 °F 30.04 in Calm     94% 0.00 in 0 W/m2
01:30 75.9 °F 74.4 °F 30.04 in Calm     95% 0.00 in 0 W/m2
02:00 75.7 °F 74.2 °F 30.02 in Calm     95% 0.00 in 0 W/m2
02:30 75.2 °F 73.7 °F 30.01 in Calm     95% 0.00 in 0 W/m2
03:00 74.7 °F 72.9 °F 30.01 in Calm     94% 0.00 in 0 W/m2
03:30 74.3 °F 72.5 °F 30.01 in Calm     94% 0.00 in 0 W/m2
04:04 74 °F 72.2 °F 30.00 in Calm     94% 0.00 in 0 W/m2
04:09 74 °F 72.1 °F 30.00 in Calm     94% 0.00 in 0 W/m2
04:14 73.9 °F 72.1 °F 29.99 in Calm     94% 0.00 in 0 W/m2
04:19 73.9 °F 72 °F 29.99 in Calm     94% 0.00 in 0 W/m2
04:24 73.8 °F 72 °F 29.99 in Calm     94% 0.00 in 0 W/m2
04:29 73.8 °F 72 °F 29.98 in Calm     94% 0.00 in 0 W/m2
04:34 73.7 °F 71.9 °F 29.98 in Calm     94% 0.00 in 0 W/m2
04:39 73.7 °F 71.7 °F 29.98 in Calm     93.5% 0.00 in 0 W/m2
04:44 73.5 °F 71.4 °F 29.97 in Calm     93% 0.00 in 0 W/m2
04:49 73.5 °F 71.3 °F 29.97 in Calm     93% 0.00 in 0 W/m2
04:54 73.4 °F 71.3 °F 29.97 in Calm     93% 0.00 in 0 W/m2
04:59 73.4 °F 71.3 °F 29.97 in Calm     93% 0.00 in 0 W/m2
05:04 73.3 °F 71.2 °F 29.97 in Calm     93% 0.00 in 0 W/m2
05:09 73.3 °F 71.2 °F 29.97 in Calm     93% 0.00 in 0 W/m2
05:14 73.3 °F 71.1 °F 29.97 in Calm     93% 0.00 in 0 W/m2
05:19 73.2 °F 71.1 °F 29.97 in Calm     93% 0.00 in 0 W/m2
05:24 73.1 °F 71.1 °F 29.96 in Calm     93.5% 0.00 in 0 W/m2
05:29 73.1 °F 71.3 °F 29.97 in Calm     94% 0.00 in 0 W/m2
05:34 73 °F 71.2 °F 29.97 in Calm     94% 0.00 in 0 W/m2
05:39 73 °F 71.2 °F 29.97 in Calm     94% 0.00 in 5 W/m2
05:44 72.9 °F 71.1 °F 29.97 in Calm     94% 0.00 in 9 W/m2
05:49 72.9 °F 71.1 °F 29.97 in Calm     94% 0.00 in 11 W/m2
05:54 72.9 °F 71.1 °F 29.97 in Calm     94% 0.00 in 12 W/m2
05:59 73 °F 71.1 °F 29.97 in Calm     94% 0.00 in 16 W/m2
06:04 73 °F 71.2 °F 29.98 in Calm     94% 0.00 in 18 W/m2
06:09 73.1 °F 71.3 °F 29.98 in SSE 0.1 mph 2 mph 94% 0.00 in 19 W/m2
06:14 73.1 °F 71.3 °F 29.99 in Calm   2 mph 94% 0.00 in 21 W/m2
06:19 73.2 °F 71.3 °F 29.99 in Calm   2 mph 94% 0.00 in 21 W/m2
06:24 73.3 °F 71.5 °F 29.98 in Calm   2 mph 94% 0.00 in 23 W/m2
06:29 73.4 °F 71.6 °F 29.98 in Calm   2 mph 94% 0.00 in 28 W/m2
06:34 73.5 °F 71.7 °F 29.98 in Calm   2 mph 94.2% 0.00 in 37 W/m2
06:39 73.7 °F 72.2 °F 29.98 in Calm     95% 0.00 in 42 W/m2
06:44 74 °F 72.5 °F 29.98 in Calm     95% 0.00 in 46 W/m2
06:49 74.4 °F 72.9 °F 29.98 in Calm     95% 0.00 in 56 W/m2
06:54 75 °F 73.5 °F 29.98 in Calm     95% 0.00 in 58 W/m2
06:59 75.7 °F 74.2 °F 29.98 in Calm     95% 0.00 in 60 W/m2
07:04 76.4 °F 74.7 °F 29.98 in Calm     94.3% 0.00 in 62 W/m2
07:09 77.2 °F 75 °F 29.98 in Calm     93.1% 0.00 in 63 W/m2
07:14 78 °F 75.6 °F 29.98 in Calm     92.2% 0.00 in 65 W/m2
07:19 78.9 °F 75.9 °F 29.98 in Calm     90.5% 0.00 in 69 W/m2
07:24 79.7 °F 76.1 °F 29.98 in Calm     88.9% 0.00 in 105 W/m2
07:29 80.4 °F 76.1 °F 29.98 in Calm     86.8% 0.00 in 304 W/m2
07:34 81.1 °F 76.4 °F 29.97 in Calm     85.6% 0.00 in 323 W/m2
07:39 81.6 °F 76.2 °F 29.97 in Calm     83.6% 0.00 in 343 W/m2
07:44 82.1 °F 76.1 °F 29.97 in Calm     82% 0.00 in 364 W/m2
07:49 82.6 °F 76.3 °F 29.97 in Calm     81.3% 0.00 in 383 W/m2
07:54 83.1 °F 76.7 °F 29.98 in WSW 0.1 mph 3 mph 81.1% 0.00 in 401 W/m2
07:59 83.5 °F 76.5 °F 29.98 in Calm   3 mph 79.6% 0.00 in 417 W/m2
08:04 84.2 °F 77 °F 29.97 in Calm     79% 0.00 in 434 W/m2
08:09 84.5 °F 76.6 °F 29.97 in Calm     77.3% 0.00 in 448 W/m2
08:14 84.8 °F 76.3 °F 29.97 in Calm     75.8% 0.00 in 452 W/m2
08:19 85.1 °F 75.7 °F 29.97 in Calm     73.5% 0.00 in 471 W/m2
08:24 85.4 °F 75.7 °F 29.97 in WSW 0.4 mph 6 mph 72.8% 0.00 in 483 W/m2
08:29 85.6 °F 76.1 °F 29.97 in Calm   6 mph 73.4% 0.00 in 499 W/m2
08:34 85.9 °F 76.3 °F 29.97 in Calm   6 mph 73.2% 0.00 in 515 W/m2
08:39 86.2 °F 76.4 °F 29.97 in Calm   1 mph 72.8% 0.00 in 520 W/m2
08:44 86.5 °F 76.3 °F 29.97 in Calm   1 mph 71.7% 0.00 in 538 W/m2
08:49 87 °F 76.3 °F 29.97 in WSW 0.1 mph 2 mph 70.8% 0.00 in 554 W/m2
08:54 87.4 °F 76 °F 29.97 in WSW 0.7 mph 6 mph 69.1% 0.00 in 571 W/m2
08:59 87.6 °F 76.1 °F 29.97 in Calm   6 mph 68.8% 0.00 in 571 W/m2
09:04 87.9 °F 76.8 °F 29.96 in Calm   6 mph 69.7% 0.00 in 585 W/m2
09:09 88.3 °F 76.5 °F 29.96 in Calm   1 mph 68.2% 0.00 in 594 W/m2
09:14 88.7 °F 76 °F 29.96 in WSW 0.1 mph 3 mph 66.3% 0.00 in 599 W/m2
09:19 88.9 °F 76.2 °F 29.96 in WSW 0.2 mph 4 mph 66.2% 0.00 in 613 W/m2
09:24 89 °F 75.6 °F 29.96 in West 0.8 mph 7 mph 64.6% 0.00 in 633 W/m2
09:29 89.1 °F 75.4 °F 29.96 in WSW 1 mph 7 mph 64% 0.00 in 650 W/m2
09:34 89.5 °F 76.4 °F 29.95 in WSW 0.3 mph 7 mph 65.5% 0.00 in 666 W/m2
09:39 89.9 °F 76.2 °F 29.95 in WSW 1.1 mph 6 mph 64.2% 0.00 in 689 W/m2
09:44 90.2 °F 76.3 °F 29.95 in WSW 1.2 mph 9 mph 63.6% 0.00 in 700 W/m2
09:49 90.6 °F 77.1 °F 29.95 in West 0.9 mph 9 mph 64.7% 0.00 in 708 W/m2
09:54 91 °F 76.4 °F 29.95 in WSW 2.4 mph 9 mph 62.6% 0.00 in 721 W/m2
09:59 91.1 °F 77.1 °F 29.95 in SW 0.2 mph 9 mph 63.6% 0.00 in 731 W/m2
10:04 91.3 °F 76.8 °F 29.95 in WSW 1 mph 9 mph 62.7% 0.00 in 747 W/m2
10:09 91.5 °F 77.2 °F 29.95 in WSW 0.5 mph 6 mph 63.1% 0.00 in 765 W/m2
10:14 91.8 °F 76.8 °F 29.95 in West 1.5 mph 10 mph 61.8% 0.00 in 773 W/m2
10:19 92 °F 76.7 °F 29.94 in WSW 1.7 mph 10 mph 61.2% 0.00 in 789 W/m2
10:24 92.2 °F 76.8 °F 29.94 in WSW 1.5 mph 10 mph 61.1% 0.00 in 800 W/m2
10:29 92.4 °F 77.3 °F 29.94 in WSW 0.3 mph 10 mph 61.8% 0.00 in 809 W/m2
10:34 92.6 °F 76.9 °F 29.94 in West 1.5 mph 10 mph 60.4% 0.00 in 821 W/m2
10:39 92.9 °F 77.7 °F 29.94 in West 0.8 mph 6 mph 61.5% 0.00 in 824 W/m2
10:44 93.2 °F 77.6 °F 29.94 in West 0.1 mph 6 mph 60.5% 0.00 in 837 W/m2
10:49 93.6 °F 78.1 °F 29.93 in West 1.9 mph 7 mph 61% 0.00 in 847 W/m2
10:54 93.9 °F 77.9 °F 29.93 in SW 0.5 mph 7 mph 60% 0.00 in 854 W/m2
10:59 94.1 °F 77.2 °F 29.93 in SW 1.7 mph 7 mph 58.1% 0.00 in 863 W/m2
11:04 94.2 °F 76.9 °F 29.93 in SW 2.4 mph 7 mph 57.4% 0.00 in 870 W/m2
11:09 94.3 °F 77.4 °F 29.93 in WSW 0.9 mph 7 mph 58.4% 0.00 in 879 W/m2
11:14 94.5 °F 78.2 °F 29.93 in West 0.5 mph 7 mph 59.4% 0.00 in 888 W/m2
11:19 94.9 °F 77.8 °F 29.93 in WSW 2.8 mph 8 mph 57.9% 0.00 in 893 W/m2
11:24 95 °F 76.5 °F 29.93 in SW 1.7 mph 8 mph 55.3% 0.00 in 904 W/m2
11:29 95.1 °F 77.3 °F 29.93 in SW 1.4 mph 8 mph 56.7% 0.00 in 905 W/m2
11:34 95.3 °F 77.4 °F 29.93 in SW 0.8 mph 8 mph 56.6% 0.00 in 905 W/m2
11:39 95.4 °F 78.2 °F 29.92 in WSW 1 mph 4 mph 57.7% 0.00 in 916 W/m2
11:44 95.6 °F 77.3 °F 29.92 in SW 1.9 mph 9 mph 55.8% 0.00 in 916 W/m2
11:49 95.8 °F 77.5 °F 29.92 in SW 1.2 mph 9 mph 55.8% 0.00 in 926 W/m2
11:54 95.9 °F 77 °F 29.92 in WSW 2 mph 11 mph 54.7% 0.00 in 933 W/m2
11:59 95.9 °F 77.9 °F 29.92 in West 1.5 mph 11 mph 56.3% 0.00 in 935 W/m2
12:04 96.1 °F 77.3 °F 29.92 in WSW 0.5 mph 1 mph 55% 0.00 in 939 W/m2
12:09 96.2 °F 77.4 °F 29.92 in West 2.1 mph 10 mph 54.9% 0.00 in 940 W/m2
12:14 96.2 °F 76 °F 29.91 in West 2.9 mph 10 mph 52.4% 0.00 in 944 W/m2
12:19 96 °F 76.6 °F 29.91 in SW 3.4 mph 10 mph 53.9% 0.00 in 949 W/m2
12:24 96 °F 77.1 °F 29.91 in WSW 1.4 mph 10 mph 54.8% 0.00 in 949 W/m2
12:29 95.9 °F 75.9 °F 29.91 in West 3.1 mph 10 mph 52.8% 0.00 in 953 W/m2
12:34 95.8 °F 76.3 °F 29.91 in WSW 1.7 mph 10 mph 53.7% 0.00 in 956 W/m2
12:39 95.9 °F 76.1 °F 29.91 in WSW 2.9 mph 7 mph 53% 0.00 in 956 W/m2
12:44 95.9 °F 76.5 °F 29.90 in WSW 1.4 mph 7 mph 53.9% 0.00 in 958 W/m2
12:49 96 °F 76 °F 29.90 in WSW 1.2 mph 7 mph 52.8% 0.00 in 962 W/m2
12:54 96.1 °F 75.3 °F 29.89 in SW 1.5 mph 7 mph 51.5% 0.00 in 965 W/m2
12:59 96.3 °F 75.6 °F 29.89 in West 1.3 mph 7 mph 51.7% 0.00 in 967 W/m2
13:04 96.4 °F 74.4 °F 29.89 in WSW 2.1 mph 7 mph 49.4% 0.00 in 967 W/m2
13:09 96.4 °F 75.4 °F 29.89 in West 1.3 mph 10 mph 51.1% 0.00 in 963 W/m2
13:14 96.7 °F 75.6 °F 29.89 in WSW 3.1 mph 11 mph 51% 0.00 in 963 W/m2
13:19 96.9 °F 75 °F 29.89 in West 3.9 mph 11 mph 49.7% 0.00 in 962 W/m2
13:24 97 °F 75.3 °F 29.89 in WNW 3 mph 14 mph 50% 0.00 in 960 W/m2
13:29 97.2 °F 75 °F 29.89 in West 3.4 mph 14 mph 49.3% 0.00 in 954 W/m2
13:34 97.2 °F 75.1 °F 29.88 in West 2.7 mph 14 mph 49.4% 0.00 in 953 W/m2
13:39 97.3 °F 74.6 °F 29.88 in WSW 2.1 mph 9 mph 48.3% 0.00 in 954 W/m2
13:44 97.7 °F 75.1 °F 29.88 in West 1.5 mph 12 mph 48.7% 0.00 in 951 W/m2
13:49 97.9 °F 74.9 °F 29.88 in WSW 2.7 mph 12 mph 48% 0.00 in 951 W/m2
13:54 98 °F 74.6 °F 29.88 in WSW 1.6 mph 12 mph 47.5% 0.00 in 946 W/m2
13:59 97.8 °F 73.7 °F 29.87 in WSW 3.7 mph 12 mph 46.3% 0.00 in 946 W/m2
14:04 97.8 °F 73.6 °F 29.87 in West 2.4 mph 12 mph 46.2% 0.00 in 946 W/m2
14:09 97.9 °F 73.9 °F 29.87 in SW 2.5 mph 9 mph 46.5% 0.00 in 937 W/m2
14:14 98.2 °F 74.6 °F 29.86 in WSW 2.3 mph 10 mph 47.1% 0.00 in 937 W/m2
14:19 98.4 °F 74.3 °F 29.86 in West 2.3 mph 10 mph 46.4% 0.00 in 925 W/m2
14:24 98.5 °F 74.3 °F 29.86 in West 2 mph 10 mph 46.2% 0.00 in 919 W/m2
14:29 98.7 °F 75.1 °F 29.86 in WSW 2.3 mph 10 mph 47.2% 0.00 in 914 W/m2
14:34 98.6 °F 73.8 °F 29.85 in SW 2.9 mph 10 mph 45.3% 0.00 in 909 W/m2
14:39 98.5 °F 74.1 °F 29.85 in WSW 2.4 mph 10 mph 45.9% 0.00 in 905 W/m2
14:44 98.6 °F 74.5 °F 29.85 in WSW 2.9 mph 13 mph 46.5% 0.00 in 896 W/m2
14:49 98.7 °F 74.3 °F 29.85 in SW 3.2 mph 13 mph 45.9% 0.00 in 889 W/m2
14:54 98.8 °F 74.2 °F 29.84 in SW 2.1 mph 13 mph 45.6% 0.00 in 881 W/m2
14:59 98.9 °F 75.2 °F 29.84 in WSW 2.3 mph 13 mph 47.1% 0.00 in 874 W/m2
15:04 99 °F 74.3 °F 29.84 in WSW 3.2 mph 13 mph 45.6% 0.00 in 861 W/m2
15:09 99 °F 74.3 °F 29.84 in WSW 2.5 mph 10 mph 45.5% 0.00 in 858 W/m2
15:14 99.1 °F 74.4 °F 29.83 in WSW 1.2 mph 10 mph 45.5% 0.00 in 842 W/m2
15:19 99.2 °F 74 °F 29.83 in West 1.9 mph 10 mph 44.8% 0.00 in 840 W/m2
15:24 99.2 °F 74.4 °F 29.83 in WSW 2.6 mph 10 mph 45.3% 0.00 in 830 W/m2
15:29 99.3 °F 74.3 °F 29.82 in SW 1.6 mph 10 mph 45.2% 0.00 in 816 W/m2
15:34 99.1 °F 74.6 °F 29.82 in WSW 1.8 mph 10 mph 45.8% 0.00 in 810 W/m2
15:39 98.8 °F 74.2 °F 29.82 in WSW 2.1 mph 7 mph 45.7% 0.00 in 812 W/m2
15:44 98.6 °F 74.2 °F 29.81 in WSW 2 mph 9 mph 45.9% 0.00 in 789 W/m2
15:49 98.5 °F 73.7 °F 29.81 in WSW 3.2 mph 11 mph 45.3% 0.00 in 775 W/m2
15:54 98.5 °F 74 °F 29.81 in SW 2.8 mph 11 mph 45.8% 0.00 in 780 W/m2
15:59 98.4 °F 74.1 °F 29.80 in SW 2.7 mph 11 mph 46% 0.00 in 752 W/m2
16:00 98.5 °F 73.5 °F 29.80 in SW 2 mph 11 mph 45% 0.00 in 742 W/m2
16:09 98.3 °F 72.4 °F 29.80 in SW 3.8 mph 7 mph 43.5% 0.00 in 729 W/m2
16:14 98.2 °F 72.4 °F 29.79 in SW 3.1 mph 8 mph 43.7% 0.00 in 712 W/m2
16:19 98.2 °F 73.1 °F 29.80 in SW 3.2 mph 8 mph 44.8% 0.00 in 645 W/m2
16:24 97.9 °F 72.9 °F 29.80 in WSW 2 mph 8 mph 44.8% 0.00 in 77 W/m2
16:29 97.6 °F 72.9 °F 29.80 in WSW 2 mph 9 mph 45.3% 0.00 in 84 W/m2
16:34 97.4 °F 73.2 °F 29.79 in West 3 mph 11 mph 46% 0.00 in 62 W/m2
16:39 97.3 °F 73.5 °F 29.79 in West 2.1 mph 11 mph 46.7% 0.00 in 63 W/m2
16:44 97.3 °F 73.8 °F 29.79 in SW 2.3 mph 11 mph 47.2% 0.00 in 76 W/m2
16:49 97.3 °F 73.2 °F 29.79 in West 2.5 mph 11 mph 46.2% 0.00 in 98 W/m2
16:54 97.2 °F 73.1 °F 29.79 in WSW 2.2 mph 11 mph 46.1% 0.00 in 116 W/m2
16:59 97.1 °F 73.4 °F 29.79 in WSW 2.6 mph 11 mph 46.8% 0.00 in 114 W/m2
17:04 96.9 °F 73.5 °F 29.79 in SW 2.9 mph 11 mph 47.1% 0.00 in 76 W/m2
17:09 96.5 °F 73 °F 29.78 in SW 3.3 mph 11 mph 47% 0.00 in 76 W/m2
17:14 96.1 °F 73 °F 29.79 in WSW 3.4 mph 12 mph 47.6% 0.00 in 77 W/m2
17:19 96 °F 73.1 °F 29.78 in WSW 2.6 mph 12 mph 47.8% 0.00 in 90 W/m2
17:24 95.8 °F 73.2 °F 29.78 in West 2.3 mph 12 mph 48.4% 0.00 in 104 W/m2
17:29 95.6 °F 73.3 °F 29.78 in WSW 2.9 mph 12 mph 48.8% 0.00 in 107 W/m2
17:34 95.5 °F 74.1 °F 29.79 in SW 0.7 mph 12 mph 50.3% 0.00 in 100 W/m2
17:39 95.3 °F 77.3 °F 29.79 in SW 0.9 mph 8 mph 56.4% 0.00 in 105 W/m2
17:44 94.8 °F 77.7 °F 29.79 in SSW 1.6 mph 8 mph 57.9% 0.00 in 105 W/m2
17:49 94.3 °F 77.6 °F 29.79 in SSW 1.7 mph 8 mph 58.7% 0.00 in 65 W/m2
17:54 93.6 °F 77.6 °F 29.79 in SSW 0.4 mph 8 mph 59.8% 0.00 in 33 W/m2
17:59 92.9 °F 77.4 °F 29.79 in SSW 0.7 mph 8 mph 60.7% 0.00 in 72 W/m2
18:04 92.5 °F 77.4 °F 29.79 in SSW 0.2 mph 8 mph 61.6% 0.00 in 77 W/m2
18:09 92.2 °F 77.7 °F 29.79 in SSW 1.1 mph 5 mph 62.8% 0.00 in 53 W/m2
18:14 92 °F 77.5 °F 29.80 in SW 0.9 mph 5 mph 62.8% 0.00 in 76 W/m2
18:19 91.7 °F 77.3 °F 29.80 in SSW 0.6 mph 5 mph 63% 0.00 in 81 W/m2
18:24 91.5 °F 77.2 °F 29.79 in SSW 0.1 mph 5 mph 63% 0.00 in 62 W/m2
18:29 91.4 °F 77.5 °F 29.79 in SSW 0.3 mph 5 mph 63.9% 0.00 in 56 W/m2
18:34 91.3 °F 77 °F 29.78 in SSW 0.3 mph 5 mph 63.1% 0.00 in 30 W/m2
18:39 91.1 °F 77.2 °F 29.78 in SSW 0.5 mph 5 mph 63.8% 0.00 in 33 W/m2
18:44 90.9 °F 76.6 °F 29.77 in SSW 0.8 mph 5 mph 63% 0.00 in 16 W/m2
18:49 90.6 °F 76.6 °F 29.77 in SSW 0.3 mph 5 mph 63.6% 0.00 in 16 W/m2
18:54 90.4 °F 76.6 °F 29.78 in Calm   5 mph 64% 0.00 in 14 W/m2
18:59 90.2 °F 76.3 °F 29.79 in SSW 0.3 mph 5 mph 63.8% 0.00 in 16 W/m2
19:04 90 °F 76.1 °F 29.79 in SSW 0.1 mph 5 mph 63.8% 0.00 in 16 W/m2
19:09 89.8 °F 76 °F 29.80 in SSW 0.2 mph 3 mph 64% 0.00 in 16 W/m2
19:13 89.7 °F 76.1 °F 29.81 in SSW 0.6 mph 3 mph 64.5% 0.00 in 14 W/m2
19:30 84.7 °F 72.5 °F 29.87 in NW 2 mph 12 mph 67% 0.00 in 7 W/m2
20:04 77.6 °F 72.7 °F 29.91 in NW 2.5 mph 8 mph 85% 0.06 in 0 W/m2
20:09 77.1 °F 72.4 °F 29.90 in NNW 0.3 mph 8 mph 85.4% 0.07 in 0 W/m2
20:14 76.6 °F 72.2 °F 29.91 in Calm   8 mph 86.5% 0.07 in 0 W/m2
20:19 76.1 °F 72.3 °F 29.91 in Calm   8 mph 87.9% 0.07 in 0 W/m2
20:24 75.9 °F 72.3 °F 29.91 in Calm   8 mph 88.7% 0.07 in 0 W/m2
20:29 75.7 °F 72.4 °F 29.92 in Calm   8 mph 89.5% 0.07 in 0 W/m2
20:34 75.7 °F 72.7 °F 29.92 in Calm   8 mph 90.4% 0.13 in 0 W/m2
20:39 75.7 °F 72.9 °F 29.91 in Calm     91% 0.16 in 0 W/m2
20:44 75.6 °F 72.8 °F 29.90 in Calm     91% 0.17 in 0 W/m2
20:49 75.4 °F 72.7 °F 29.89 in Calm     91.2% 0.17 in 0 W/m2
20:54 75.4 °F 72.9 °F 29.89 in Calm     92% 0.17 in 0 W/m2
20:59 75.3 °F 72.9 °F 29.89 in Calm     92% 0.17 in 0 W/m2
21:04 75.3 °F 72.8 °F 29.89 in Calm     92% 0.17 in 0 W/m2
21:09 75.3 °F 72.8 °F 29.89 in Calm     92% 0.10 in 0 W/m2
21:14 75.3 °F 73.1 °F 29.89 in Calm     92.9% 0.10 in 0 W/m2
21:19 75.3 °F 73.2 °F 29.90 in Calm     93% 0.10 in 0 W/m2
21:24 75.4 °F 73.2 °F 29.90 in Calm     93% 0.10 in 0 W/m2
21:29 75.4 °F 73.2 °F 29.90 in Calm     93% 0.10 in 0 W/m2
21:34 75.3 °F 73.2 °F 29.90 in Calm     93% 0.10 in 0 W/m2
21:39 75.3 °F 73.1 °F 29.89 in Calm     93% 0.10 in 0 W/m2
21:44 75.3 °F 73.1 °F 29.89 in Calm   1 mph 93% 0.10 in 0 W/m2
21:49 75.3 °F 73.2 °F 29.88 in Calm   1 mph 93.4% 0.11 in 0 W/m2
21:54 75.1 °F 73.3 °F 29.87 in Calm   1 mph 94% 0.11 in 0 W/m2
21:59 75 °F 73.2 °F 29.87 in Calm   1 mph 94% 0.11 in 0 W/m2
22:04 75.1 °F 73.2 °F 29.87 in Calm   1 mph 94% 0.11 in 0 W/m2
22:09 75 °F 73.2 °F 29.86 in Calm     94% 0.01 in 0 W/m2
22:14 75 °F 73.2 °F 29.87 in Calm     94% 0.01 in 0 W/m2
22:19 75.1 °F 73.3 °F 29.87 in Calm     94% 0.02 in 0 W/m2
22:24 75.1 °F 73.3 °F 29.87 in Calm     94% 0.02 in 0 W/m2
22:29 75.1 °F 73.2 °F 29.87 in Calm     94% 0.02 in 0 W/m2
22:34 75 °F 73.1 °F 29.87 in Calm     94% 0.02 in 0 W/m2
22:39 74.9 °F 73 °F 29.86 in Calm     94% 0.02 in 0 W/m2
22:44 74.8 °F 73 °F 29.86 in Calm     94% 0.02 in 0 W/m2
22:49 74.7 °F 72.9 °F 29.86 in Calm     94% 0.02 in 0 W/m2
22:54 74.7 °F 72.9 °F 29.86 in Calm     94% 0.02 in 0 W/m2
22:59 74.7 °F 72.8 °F 29.86 in Calm     94% 0.02 in 0 W/m2
23:04 74.6 °F 72.8 °F 29.86 in Calm     94% 0.01 in 0 W/m2
23:09 74.6 °F 72.7 °F 29.86 in Calm     94% 0.01 in 0 W/m2
23:10 74.6 °F 72.7 °F 29.86 in Calm     94% 0.01 in 0 W/m2
23:30 74.4 °F 72.9 °F 29.85 in Calm     95% 0.00 in 0 W/m2
Hartford County Weather
Compliments of Weather Underground - 2 mb